sensor_id;sensor_type;location;lat;lon;timestamp;P1;durP1;ratioP1;P2;durP2;ratioP2
20739;SDS011;10530;49.968;19.844;2023-04-03T00:01:08;3.55;;;1.50;;
20739;SDS011;10530;49.968;19.844;2023-04-03T00:06:11;5.88;;;2.00;;
20739;SDS011;10530;49.968;19.844;2023-04-03T00:11:14;5.23;;;1.80;;
20739;SDS011;10530;49.968;19.844;2023-04-03T00:16:17;4.85;;;2.00;;
20739;SDS011;10530;49.968;19.844;2023-04-03T00:21:20;5.45;;;2.00;;
20739;SDS011;10530;49.968;19.844;2023-04-03T00:26:22;3.95;;;1.38;;
20739;SDS011;10530;49.968;19.844;2023-04-03T00:31:25;3.72;;;1.20;;
20739;SDS011;10530;49.968;19.844;2023-04-03T00:36:28;4.47;;;1.70;;
20739;SDS011;10530;49.968;19.844;2023-04-03T00:41:31;3.92;;;1.88;;
20739;SDS011;10530;49.968;19.844;2023-04-03T00:46:34;4.50;;;1.52;;
20739;SDS011;10530;49.968;19.844;2023-04-03T00:51:37;4.72;;;1.80;;
20739;SDS011;10530;49.968;19.844;2023-04-03T00:56:40;5.18;;;1.98;;
20739;SDS011;10530;49.968;19.844;2023-04-03T01:01:43;6.43;;;2.10;;
20739;SDS011;10530;49.968;19.844;2023-04-03T01:06:46;5.43;;;1.83;;
20739;SDS011;10530;49.968;19.844;2023-04-03T01:11:49;4.57;;;1.52;;
20739;SDS011;10530;49.968;19.844;2023-04-03T01:16:54;3.58;;;1.55;;
20739;SDS011;10530;49.968;19.844;2023-04-03T01:22:05;3.50;;;1.40;;
20739;SDS011;10530;49.968;19.844;2023-04-03T01:27:21;4.10;;;1.37;;
20739;SDS011;10530;49.968;19.844;2023-04-03T01:32:24;4.07;;;1.42;;
20739;SDS011;10530;49.968;19.844;2023-04-03T01:37:27;4.32;;;1.92;;
20739;SDS011;10530;49.968;19.844;2023-04-03T01:42:29;5.28;;;1.10;;
20739;SDS011;10530;49.968;19.844;2023-04-03T01:47:32;5.20;;;2.10;;
20739;SDS011;10530;49.968;19.844;2023-04-03T01:52:35;5.93;;;1.93;;
20739;SDS011;10530;49.968;19.844;2023-04-03T01:57:39;3.35;;;1.35;;
20739;SDS011;10530;49.968;19.844;2023-04-03T02:02:42;4.03;;;1.60;;
20739;SDS011;10530;49.968;19.844;2023-04-03T02:07:44;4.90;;;2.30;;
20739;SDS011;10530;49.968;19.844;2023-04-03T02:12:47;3.88;;;1.92;;
20739;SDS011;10530;49.968;19.844;2023-04-03T02:17:50;4.60;;;1.80;;
20739;SDS011;10530;49.968;19.844;2023-04-03T02:22:54;7.40;;;2.95;;
20739;SDS011;10530;49.968;19.844;2023-04-03T02:27:59;6.07;;;2.70;;
20739;SDS011;10530;49.968;19.844;2023-04-03T02:33:02;4.88;;;2.38;;
20739;SDS011;10530;49.968;19.844;2023-04-03T02:38:05;4.10;;;1.63;;
20739;SDS011;10530;49.968;19.844;2023-04-03T02:43:08;4.87;;;1.63;;
20739;SDS011;10530;49.968;19.844;2023-04-03T02:48:12;4.43;;;2.00;;
20739;SDS011;10530;49.968;19.844;2023-04-03T02:53:16;4.70;;;1.38;;
20739;SDS011;10530;49.968;19.844;2023-04-03T02:58:20;5.95;;;2.13;;
20739;SDS011;10530;49.968;19.844;2023-04-03T03:03:23;6.13;;;2.13;;
20739;SDS011;10530;49.968;19.844;2023-04-03T03:08:26;5.87;;;2.10;;
20739;SDS011;10530;49.968;19.844;2023-04-03T03:13:28;4.82;;;1.95;;
20739;SDS011;10530;49.968;19.844;2023-04-03T03:18:32;4.07;;;1.92;;
20739;SDS011;10530;49.968;19.844;2023-04-03T03:23:35;5.57;;;2.25;;
20739;SDS011;10530;49.968;19.844;2023-04-03T03:28:40;4.70;;;1.90;;
20739;SDS011;10530;49.968;19.844;2023-04-03T03:33:43;3.50;;;1.50;;
20739;SDS011;10530;49.968;19.844;2023-04-03T03:38:45;3.15;;;1.30;;
20739;SDS011;10530;49.968;19.844;2023-04-03T03:43:48;5.03;;;2.03;;
20739;SDS011;10530;49.968;19.844;2023-04-03T03:48:51;4.57;;;1.90;;
20739;SDS011;10530;49.968;19.844;2023-04-03T03:53:54;5.18;;;1.70;;
20739;SDS011;10530;49.968;19.844;2023-04-03T03:58:57;4.27;;;1.33;;
20739;SDS011;10530;49.968;19.844;2023-04-03T04:04:00;3.90;;;1.92;;
20739;SDS011;10530;49.968;19.844;2023-04-03T04:09:05;3.58;;;1.27;;
20739;SDS011;10530;49.968;19.844;2023-04-03T04:14:08;3.78;;;1.38;;
20739;SDS011;10530;49.968;19.844;2023-04-03T04:19:12;4.13;;;1.23;;
20739;SDS011;10530;49.968;19.844;2023-04-03T04:24:18;4.80;;;1.60;;
20739;SDS011;10530;49.968;19.844;2023-04-03T04:29:23;4.55;;;1.70;;
20739;SDS011;10530;49.968;19.844;2023-04-03T04:34:27;3.97;;;1.55;;
20739;SDS011;10530;49.968;19.844;2023-04-03T04:39:30;3.60;;;1.25;;
20739;SDS011;10530;49.968;19.844;2023-04-03T04:44:33;3.20;;;1.20;;
20739;SDS011;10530;49.968;19.844;2023-04-03T04:49:36;4.43;;;1.40;;
20739;SDS011;10530;49.968;19.844;2023-04-03T04:54:39;4.18;;;1.30;;
20739;SDS011;10530;49.968;19.844;2023-04-03T04:59:43;3.95;;;1.48;;
20739;SDS011;10530;49.968;19.844;2023-04-03T05:04:46;4.15;;;1.60;;
20739;SDS011;10530;49.968;19.844;2023-04-03T05:09:54;5.63;;;1.83;;
20739;SDS011;10530;49.968;19.844;2023-04-03T05:14:57;3.00;;;1.20;;
20739;SDS011;10530;49.968;19.844;2023-04-03T05:20:02;4.07;;;1.83;;
20739;SDS011;10530;49.968;19.844;2023-04-03T05:25:08;6.53;;;2.17;;
20739;SDS011;10530;49.968;19.844;2023-04-03T05:30:13;4.15;;;1.70;;
20739;SDS011;10530;49.968;19.844;2023-04-03T05:35:16;4.50;;;2.10;;
20739;SDS011;10530;49.968;19.844;2023-04-03T05:40:22;3.90;;;1.80;;
20739;SDS011;10530;49.968;19.844;2023-04-03T05:45:28;5.45;;;2.30;;
20739;SDS011;10530;49.968;19.844;2023-04-03T05:50:32;6.40;;;1.88;;
20739;SDS011;10530;49.968;19.844;2023-04-03T05:55:36;4.70;;;1.92;;
20739;SDS011;10530;49.968;19.844;2023-04-03T06:00:40;7.30;;;1.73;;
20739;SDS011;10530;49.968;19.844;2023-04-03T06:05:43;5.60;;;1.80;;
20739;SDS011;10530;49.968;19.844;2023-04-03T06:10:46;4.50;;;1.48;;
20739;SDS011;10530;49.968;19.844;2023-04-03T06:15:49;4.88;;;1.85;;
20739;SDS011;10530;49.968;19.844;2023-04-03T06:20:52;4.13;;;1.65;;
20739;SDS011;10530;49.968;19.844;2023-04-03T06:25:55;4.70;;;1.58;;
20739;SDS011;10530;49.968;19.844;2023-04-03T06:30:58;4.80;;;2.17;;
20739;SDS011;10530;49.968;19.844;2023-04-03T06:36:03;4.55;;;1.85;;
20739;SDS011;10530;49.968;19.844;2023-04-03T06:41:06;3.58;;;1.25;;
20739;SDS011;10530;49.968;19.844;2023-04-03T06:46:19;3.47;;;1.48;;
20739;SDS011;10530;49.968;19.844;2023-04-03T06:51:24;5.78;;;1.55;;
20739;SDS011;10530;49.968;19.844;2023-04-03T06:56:29;6.30;;;1.63;;
20739;SDS011;10530;49.968;19.844;2023-04-03T07:01:32;3.88;;;1.05;;
20739;SDS011;10530;49.968;19.844;2023-04-03T07:06:35;2.78;;;0.98;;
20739;SDS011;10530;49.968;19.844;2023-04-03T07:11:38;5.15;;;1.35;;
20739;SDS011;10530;49.968;19.844;2023-04-03T07:16:41;4.25;;;1.10;;
20739;SDS011;10530;49.968;19.844;2023-04-03T07:21:44;3.07;;;1.20;;
20739;SDS011;10530;49.968;19.844;2023-04-03T07:26:50;3.97;;;1.15;;
20739;SDS011;10530;49.968;19.844;2023-04-03T07:31:54;3.08;;;1.08;;
20739;SDS011;10530;49.968;19.844;2023-04-03T07:36:58;5.25;;;1.33;;
20739;SDS011;10530;49.968;19.844;2023-04-03T07:42:02;2.78;;;1.10;;
20739;SDS011;10530;49.968;19.844;2023-04-03T07:47:05;4.83;;;1.57;;
20739;SDS011;10530;49.968;19.844;2023-04-03T07:52:07;2.83;;;0.90;;
20739;SDS011;10530;49.968;19.844;2023-04-03T07:57:11;6.93;;;1.55;;
20739;SDS011;10530;49.968;19.844;2023-04-03T08:02:13;4.40;;;1.10;;
20739;SDS011;10530;49.968;19.844;2023-04-03T08:07:17;3.33;;;1.27;;
20739;SDS011;10530;49.968;19.844;2023-04-03T08:12:19;3.27;;;1.43;;
20739;SDS011;10530;49.968;19.844;2023-04-03T08:17:23;4.68;;;1.17;;
20739;SDS011;10530;49.968;19.844;2023-04-03T08:22:26;3.95;;;1.30;;
20739;SDS011;10530;49.968;19.844;2023-04-03T08:27:29;3.08;;;1.20;;
20739;SDS011;10530;49.968;19.844;2023-04-03T08:32:33;2.00;;;0.70;;
20739;SDS011;10530;49.968;19.844;2023-04-03T08:37:37;3.90;;;1.63;;
20739;SDS011;10530;49.968;19.844;2023-04-03T08:53:17;4.25;;;1.70;;
20739;SDS011;10530;49.968;19.844;2023-04-03T08:58:30;4.38;;;1.70;;
20739;SDS011;10530;49.968;19.844;2023-04-03T09:03:38;3.67;;;1.27;;
20739;SDS011;10530;49.968;19.844;2023-04-03T09:19:07;3.22;;;0.88;;
20739;SDS011;10530;49.968;19.844;2023-04-03T09:24:20;3.42;;;1.23;;
20739;SDS011;10530;49.968;19.844;2023-04-03T09:29:25;7.97;;;1.47;;
20739;SDS011;10530;49.968;19.844;2023-04-03T09:34:32;3.58;;;0.85;;
20739;SDS011;10530;49.968;19.844;2023-04-03T09:39:52;4.97;;;1.27;;
20739;SDS011;10530;49.968;19.844;2023-04-03T09:45:00;3.33;;;1.27;;
20739;SDS011;10530;49.968;19.844;2023-04-03T09:50:10;3.17;;;1.08;;
20739;SDS011;10530;49.968;19.844;2023-04-03T09:55:23;7.07;;;1.43;;
20739;SDS011;10530;49.968;19.844;2023-04-03T10:00:37;4.72;;;1.60;;
20739;SDS011;10530;49.968;19.844;2023-04-03T10:05:42;4.18;;;1.30;;
20739;SDS011;10530;49.968;19.844;2023-04-03T10:10:45;2.63;;;0.93;;
20739;SDS011;10530;49.968;19.844;2023-04-03T10:21:09;4.20;;;1.70;;
20739;SDS011;10530;49.968;19.844;2023-04-03T10:31:59;4.60;;;1.63;;
20739;SDS011;10530;49.968;19.844;2023-04-03T10:53:08;6.00;;;1.70;;
20739;SDS011;10530;49.968;19.844;2023-04-03T10:58:39;8.32;;;1.90;;
20739;SDS011;10530;49.968;19.844;2023-04-03T11:03:47;5.40;;;1.80;;
20739;SDS011;10530;49.968;19.844;2023-04-03T11:14:35;3.50;;;1.33;;
20739;SDS011;10530;49.968;19.844;2023-04-03T11:30:17;5.03;;;1.95;;
20739;SDS011;10530;49.968;19.844;2023-04-03T11:35:27;4.97;;;1.55;;
20739;SDS011;10530;49.968;19.844;2023-04-03T11:40:34;4.33;;;1.80;;
20739;SDS011;10530;49.968;19.844;2023-04-03T11:45:52;4.03;;;1.35;;
20739;SDS011;10530;49.968;19.844;2023-04-03T11:50:58;2.88;;;1.10;;
20739;SDS011;10530;49.968;19.844;2023-04-03T12:07:02;3.73;;;1.47;;
20739;SDS011;10530;49.968;19.844;2023-04-03T12:17:28;4.40;;;1.10;;
20739;SDS011;10530;49.968;19.844;2023-04-03T12:22:32;4.75;;;1.83;;
20739;SDS011;10530;49.968;19.844;2023-04-03T12:27:38;3.60;;;1.55;;
20739;SDS011;10530;49.968;19.844;2023-04-03T12:48:56;2.30;;;0.80;;
20739;SDS011;10530;49.968;19.844;2023-04-03T12:54:04;8.15;;;1.50;;
20739;SDS011;10530;49.968;19.844;2023-04-03T12:59:35;5.23;;;1.60;;
20739;SDS011;10530;49.968;19.844;2023-04-03T13:04:38;3.45;;;1.50;;
20739;SDS011;10530;49.968;19.844;2023-04-03T13:09:41;4.15;;;2.08;;
20739;SDS011;10530;49.968;19.844;2023-04-03T13:14:54;3.88;;;1.80;;
20739;SDS011;10530;49.968;19.844;2023-04-03T13:25:39;3.53;;;1.33;;
20739;SDS011;10530;49.968;19.844;2023-04-03T13:30:55;8.13;;;1.42;;
20739;SDS011;10530;49.968;19.844;2023-04-03T13:36:03;4.03;;;1.60;;
20739;SDS011;10530;49.968;19.844;2023-04-03T13:41:44;4.53;;;1.58;;
20739;SDS011;10530;49.968;19.844;2023-04-03T13:46:40;3.38;;;1.10;;
20739;SDS011;10530;49.968;19.844;2023-04-03T13:51:43;4.23;;;1.50;;
20739;SDS011;10530;49.968;19.844;2023-04-03T13:56:54;4.85;;;1.27;;
20739;SDS011;10530;49.968;19.844;2023-04-03T14:07:04;2.38;;;0.90;;
20739;SDS011;10530;49.968;19.844;2023-04-03T14:12:12;4.13;;;1.30;;
20739;SDS011;10530;49.968;19.844;2023-04-03T14:17:32;4.53;;;1.20;;
20739;SDS011;10530;49.968;19.844;2023-04-03T14:22:35;5.10;;;1.63;;
20739;SDS011;10530;49.968;19.844;2023-04-03T14:27:39;4.65;;;1.42;;
20739;SDS011;10530;49.968;19.844;2023-04-03T14:32:44;1.67;;;0.52;;
20739;SDS011;10530;49.968;19.844;2023-04-03T14:37:49;4.50;;;1.20;;
20739;SDS011;10530;49.968;19.844;2023-04-03T14:42:55;4.13;;;1.60;;
20739;SDS011;10530;49.968;19.844;2023-04-03T14:47:59;3.65;;;1.00;;
20739;SDS011;10530;49.968;19.844;2023-04-03T14:53:02;4.80;;;1.38;;
20739;SDS011;10530;49.968;19.844;2023-04-03T14:58:05;6.00;;;1.60;;
20739;SDS011;10530;49.968;19.844;2023-04-03T15:03:21;3.53;;;1.05;;
20739;SDS011;10530;49.968;19.844;2023-04-03T15:08:26;5.97;;;1.60;;
20739;SDS011;10530;49.968;19.844;2023-04-03T15:13:33;5.82;;;1.63;;
20739;SDS011;10530;49.968;19.844;2023-04-03T15:18:37;3.30;;;1.20;;
20739;SDS011;10530;49.968;19.844;2023-04-03T15:23:40;3.47;;;1.30;;
20739;SDS011;10530;49.968;19.844;2023-04-03T15:28:44;4.88;;;1.45;;
20739;SDS011;10530;49.968;19.844;2023-04-03T15:33:47;6.87;;;1.97;;
20739;SDS011;10530;49.968;19.844;2023-04-03T15:38:50;6.55;;;1.60;;
20739;SDS011;10530;49.968;19.844;2023-04-03T15:43:53;5.38;;;2.08;;
20739;SDS011;10530;49.968;19.844;2023-04-03T15:48:55;3.30;;;1.13;;
20739;SDS011;10530;49.968;19.844;2023-04-03T15:53:58;4.18;;;1.35;;
20739;SDS011;10530;49.968;19.844;2023-04-03T15:59:01;5.73;;;1.37;;
20739;SDS011;10530;49.968;19.844;2023-04-03T16:04:04;4.88;;;1.60;;
20739;SDS011;10530;49.968;19.844;2023-04-03T16:09:09;3.28;;;1.15;;
20739;SDS011;10530;49.968;19.844;2023-04-03T16:14:12;4.30;;;1.55;;
20739;SDS011;10530;49.968;19.844;2023-04-03T16:19:15;7.00;;;1.40;;
20739;SDS011;10530;49.968;19.844;2023-04-03T16:24:18;5.30;;;1.47;;
20739;SDS011;10530;49.968;19.844;2023-04-03T16:29:21;5.60;;;1.63;;
20739;SDS011;10530;49.968;19.844;2023-04-03T16:34:24;5.60;;;1.75;;
20739;SDS011;10530;49.968;19.844;2023-04-03T16:39:27;3.70;;;1.17;;
20739;SDS011;10530;49.968;19.844;2023-04-03T16:44:30;5.90;;;1.17;;
20739;SDS011;10530;49.968;19.844;2023-04-03T16:49:33;3.97;;;1.70;;
20739;SDS011;10530;49.968;19.844;2023-04-03T16:54:36;5.13;;;1.58;;
20739;SDS011;10530;49.968;19.844;2023-04-03T16:59:39;4.65;;;1.88;;
20739;SDS011;10530;49.968;19.844;2023-04-03T17:04:42;4.88;;;1.52;;
20739;SDS011;10530;49.968;19.844;2023-04-03T17:09:45;5.05;;;1.77;;
20739;SDS011;10530;49.968;19.844;2023-04-03T17:14:48;3.53;;;1.10;;
20739;SDS011;10530;49.968;19.844;2023-04-03T17:19:51;4.03;;;1.52;;
20739;SDS011;10530;49.968;19.844;2023-04-03T17:24:55;7.05;;;1.83;;
20739;SDS011;10530;49.968;19.844;2023-04-03T17:29:58;5.43;;;1.33;;
20739;SDS011;10530;49.968;19.844;2023-04-03T17:35:01;6.55;;;1.88;;
20739;SDS011;10530;49.968;19.844;2023-04-03T17:40:04;7.10;;;2.77;;
20739;SDS011;10530;49.968;19.844;2023-04-03T17:45:08;6.72;;;2.45;;
20739;SDS011;10530;49.968;19.844;2023-04-03T17:50:11;7.68;;;2.55;;
20739;SDS011;10530;49.968;19.844;2023-04-03T17:55:17;8.27;;;2.38;;
20739;SDS011;10530;49.968;19.844;2023-04-03T18:00:19;10.13;;;2.63;;
20739;SDS011;10530;49.968;19.844;2023-04-03T18:05:25;6.43;;;2.60;;
20739;SDS011;10530;49.968;19.844;2023-04-03T18:10:29;5.72;;;2.08;;
20739;SDS011;10530;49.968;19.844;2023-04-03T18:15:32;6.78;;;2.83;;
20739;SDS011;10530;49.968;19.844;2023-04-03T18:20:35;5.63;;;2.35;;
20739;SDS011;10530;49.968;19.844;2023-04-03T18:25:38;7.18;;;2.47;;
20739;SDS011;10530;49.968;19.844;2023-04-03T18:30:41;6.47;;;2.70;;
20739;SDS011;10530;49.968;19.844;2023-04-03T18:35:44;6.00;;;2.70;;
20739;SDS011;10530;49.968;19.844;2023-04-03T18:40:47;5.82;;;2.30;;
20739;SDS011;10530;49.968;19.844;2023-04-03T18:45:51;6.32;;;2.70;;
20739;SDS011;10530;49.968;19.844;2023-04-03T18:50:55;8.27;;;2.38;;
20739;SDS011;10530;49.968;19.844;2023-04-03T18:55:58;6.37;;;2.93;;
20739;SDS011;10530;49.968;19.844;2023-04-03T19:01:00;6.78;;;2.78;;
20739;SDS011;10530;49.968;19.844;2023-04-03T19:06:04;6.65;;;2.63;;
20739;SDS011;10530;49.968;19.844;2023-04-03T19:11:07;7.38;;;2.63;;
20739;SDS011;10530;49.968;19.844;2023-04-03T19:16:10;10.23;;;3.38;;
20739;SDS011;10530;49.968;19.844;2023-04-03T19:21:14;10.90;;;3.83;;
20739;SDS011;10530;49.968;19.844;2023-04-03T19:26:17;8.82;;;3.90;;
20739;SDS011;10530;49.968;19.844;2023-04-03T19:31:21;8.63;;;4.05;;
20739;SDS011;10530;49.968;19.844;2023-04-03T19:36:24;9.98;;;4.35;;
20739;SDS011;10530;49.968;19.844;2023-04-03T19:41:29;13.88;;;4.18;;
20739;SDS011;10530;49.968;19.844;2023-04-03T19:46:33;11.87;;;4.53;;
20739;SDS011;10530;49.968;19.844;2023-04-03T19:51:37;11.45;;;4.50;;
20739;SDS011;10530;49.968;19.844;2023-04-03T19:56:41;11.13;;;4.25;;
20739;SDS011;10530;49.968;19.844;2023-04-03T20:01:44;9.30;;;3.58;;
20739;SDS011;10530;49.968;19.844;2023-04-03T20:06:50;14.30;;;4.97;;
20739;SDS011;10530;49.968;19.844;2023-04-03T20:11:53;12.27;;;4.73;;
20739;SDS011;10530;49.968;19.844;2023-04-03T20:16:57;9.43;;;4.05;;
20739;SDS011;10530;49.968;19.844;2023-04-03T20:22:00;10.80;;;3.85;;
20739;SDS011;10530;49.968;19.844;2023-04-03T20:27:03;10.18;;;3.15;;
20739;SDS011;10530;49.968;19.844;2023-04-03T20:32:06;11.90;;;3.47;;
20739;SDS011;10530;49.968;19.844;2023-04-03T20:37:11;10.53;;;4.37;;
20739;SDS011;10530;49.968;19.844;2023-04-03T20:42:15;14.93;;;3.85;;
20739;SDS011;10530;49.968;19.844;2023-04-03T20:47:18;10.32;;;4.55;;
20739;SDS011;10530;49.968;19.844;2023-04-03T20:52:22;12.65;;;4.60;;
20739;SDS011;10530;49.968;19.844;2023-04-03T20:57:25;10.18;;;3.58;;
20739;SDS011;10530;49.968;19.844;2023-04-03T21:02:30;10.67;;;4.03;;
20739;SDS011;10530;49.968;19.844;2023-04-03T21:24:08;13.38;;;5.25;;
20739;SDS011;10530;49.968;19.844;2023-04-03T21:29:12;10.83;;;4.13;;
20739;SDS011;10530;49.968;19.844;2023-04-03T21:34:15;9.90;;;3.83;;
20739;SDS011;10530;49.968;19.844;2023-04-03T21:39:18;10.02;;;4.60;;
20739;SDS011;10530;49.968;19.844;2023-04-03T21:44:22;9.60;;;4.57;;
20739;SDS011;10530;49.968;19.844;2023-04-03T21:49:26;11.68;;;4.55;;
20739;SDS011;10530;49.968;19.844;2023-04-03T21:54:30;12.03;;;4.50;;
20739;SDS011;10530;49.968;19.844;2023-04-03T21:59:34;12.27;;;3.70;;
20739;SDS011;10530;49.968;19.844;2023-04-03T22:04:39;7.80;;;3.72;;
20739;SDS011;10530;49.968;19.844;2023-04-03T22:09:41;9.60;;;3.55;;
20739;SDS011;10530;49.968;19.844;2023-04-03T22:14:45;8.32;;;3.53;;
20739;SDS011;10530;49.968;19.844;2023-04-03T22:19:48;10.47;;;4.00;;
20739;SDS011;10530;49.968;19.844;2023-04-03T22:24:51;10.25;;;3.92;;
20739;SDS011;10530;49.968;19.844;2023-04-03T22:29:54;14.63;;;4.68;;
20739;SDS011;10530;49.968;19.844;2023-04-03T22:34:57;7.38;;;3.63;;
20739;SDS011;10530;49.968;19.844;2023-04-03T22:40:01;11.88;;;4.93;;
20739;SDS011;10530;49.968;19.844;2023-04-03T22:45:05;11.77;;;4.00;;
20739;SDS011;10530;49.968;19.844;2023-04-03T22:50:08;11.95;;;4.65;;
20739;SDS011;10530;49.968;19.844;2023-04-03T22:55:12;12.27;;;4.07;;
20739;SDS011;10530;49.968;19.844;2023-04-03T23:00:20;14.10;;;3.83;;
20739;SDS011;10530;49.968;19.844;2023-04-03T23:05:23;8.45;;;3.45;;
20739;SDS011;10530;49.968;19.844;2023-04-03T23:10:26;9.93;;;3.20;;
20739;SDS011;10530;49.968;19.844;2023-04-03T23:15:29;12.88;;;3.25;;
20739;SDS011;10530;49.968;19.844;2023-04-03T23:20:32;11.00;;;3.67;;
20739;SDS011;10530;49.968;19.844;2023-04-03T23:25:35;4.30;;;1.85;;
20739;SDS011;10530;49.968;19.844;2023-04-03T23:30:38;7.07;;;2.33;;
20739;SDS011;10530;49.968;19.844;2023-04-03T23:35:42;9.63;;;3.17;;
20739;SDS011;10530;49.968;19.844;2023-04-03T23:40:47;8.00;;;2.60;;
20739;SDS011;10530;49.968;19.844;2023-04-03T23:45:50;7.68;;;2.35;;
20739;SDS011;10530;49.968;19.844;2023-04-03T23:50:53;4.57;;;1.63;;
20739;SDS011;10530;49.968;19.844;2023-04-03T23:55:56;5.93;;;1.95;;
